METAR Data
IDs: Format: Raw Decoded Include TAF

Data at: 1722 UTC 16 Oct 2021

KOZS 161715Z AUTO 29012G18KT 10SM CLR 15/01 A3029 RMK AO2